Time;durP1;ratioP1;P1;durP2;ratioP2;P2;SDS_P1;SDS_P2;PMS_P1;PMS_P2;Temp;Humidity;BMP_temperature;BMP_pressure;BME280_temperature;BME280_humidity;BME280_pressure;Samples;Min_cycle;Max_cycle;Signal;HPM_P1;HPM_P2
2022/10/23 00:01:31;;;;;;;25.27;15.90;;;;;;;11.89;88.26;97734.92;1720760;83;21451;-80
2022/10/23 00:04:09;;;;;;;15.95;10.60;;;;;;;11.89;88.51;97730.10;1718538;82;21044;-80
2022/10/23 00:06:36;;;;;;;13.53;7.92;;;;;;;11.88;91.67;97738.52;1721322;82;20992;-81
2022/10/23 00:09:06;;;;;;;10.95;8.43;;;;;;;11.93;91.31;97741.01;1721242;82;21406;-80
2022/10/23 00:11:34;;;;;;;10.23;6.85;;;;;;;11.98;89.99;97731.07;1721291;82;21458;-81
2022/10/23 00:14:04;;;;;;;9.13;6.40;;;;;;;12.01;92.35;97729.59;1721417;82;20989;-81
2022/10/23 00:16:31;;;;;;;6.22;4.60;;;;;;;12.08;90.82;97724.09;1701927;82;21029;-80
2022/10/23 00:18:58;;;;;;;4.90;3.90;;;;;;;12.14;90.66;97724.69;1721369;82;21374;-81
2022/10/23 00:21:26;;;;;;;6.22;4.37;;;;;;;12.22;90.30;97727.06;1721605;82;20962;-80
2022/10/23 00:23:53;;;;;;;4.80;4.00;;;;;;;12.26;90.71;97727.80;1714843;82;20997;-80
2022/10/23 00:26:20;;;;;;;6.37;4.25;;;;;;;12.28;90.07;97740.09;1716976;82;21379;-80
2022/10/23 00:28:50;;;;;;;4.15;3.37;;;;;;;12.33;89.81;97744.36;1716944;82;21483;-81
2022/10/23 00:31:19;;;;;;;3.83;3.33;;;;;;;12.35;89.97;97741.16;1717249;83;21059;-82
2022/10/23 00:33:46;;;;;;;3.80;3.37;;;;;;;12.42;90.40;97743.98;1716962;82;21071;-82
2022/10/23 00:36:15;;;;;;;4.12;3.10;;;;;;;12.48;90.77;97754.35;1709410;82;20969;-80
2022/10/23 00:38:44;;;;;;;3.58;3.00;;;;;;;12.51;90.79;97754.20;1718540;81;20997;-79
2022/10/23 00:41:19;;;;;;;3.58;3.20;;;;;;;12.57;90.12;97754.42;1718464;81;21053;-79
2022/10/23 00:44:02;;;;;;;3.37;3.08;;;;;;;12.61;89.91;97749.84;1715294;82;21037;-79
2022/10/23 00:46:30;;;;;;;4.95;3.05;;;;;;;12.62;90.10;97757.75;1712663;83;20973;-79
2022/10/23 00:48:58;;;;;;;4.40;3.45;;;;;;;12.66;89.76;97763.35;1677563;85;21086;-79
2022/10/23 00:51:30;;;;;;;4.70;3.02;;;;;;;12.69;89.46;97761.03;1659277;85;20974;-81
2022/10/23 00:53:59;;;;;;;3.40;3.10;;;;;;;12.71;89.35;97770.27;1660566;85;21509;-81
2022/10/23 00:56:26;;;;;;;4.10;3.30;;;;;;;12.72;89.04;97772.88;1660494;86;21060;-81
2022/10/23 00:58:53;;;;;;;4.67;3.35;;;;;;;12.72;88.97;97766.23;1670411;85;21060;-81
2022/10/23 01:01:22;;;;;;;4.72;2.90;;;;;;;12.73;88.91;97781.70;1660530;86;21415;-81
2022/10/23 01:03:50;;;;;;;4.03;3.00;;;;;;;12.72;88.94;97768.89;1660396;86;21446;-82
2022/10/23 01:06:37;;;;;;;3.00;2.70;;;;;;;12.68;88.68;97773.44;1639216;86;21017;-80
2022/10/23 01:09:13;;;;;;;3.33;3.00;;;;;;;12.68;88.68;97764.62;1654538;85;20962;-80
2022/10/23 01:11:54;;;;;;;4.53;3.33;;;;;;;12.63;88.47;97765.28;1706066;83;20968;-80
2022/10/23 01:14:41;;;;;;;5.92;3.02;;;;;;;12.53;88.50;97784.27;1681368;84;21050;-81
2022/10/23 01:17:36;;;;;;;4.87;3.27;;;;;;;12.48;88.40;97779.60;1699547;84;21354;-80
2022/10/23 01:20:37;;;;;;;4.08;3.35;;;;;;;12.45;88.52;97789.02;1699360;83;21062;-80
2022/10/23 01:23:55;;;;;;;4.10;3.20;;;;;;;12.41;88.27;97800.25;1695867;83;21450;-80
2022/10/23 01:26:49;;;;;;;4.00;3.30;;;;;;;12.40;88.04;97801.62;1695538;84;21029;-80
2022/10/23 01:29:30;;;;;;;4.60;3.50;;;;;;;12.37;88.17;97805.76;1699563;84;21121;-81
2022/10/23 01:32:11;;;;;;;4.78;4.00;;;;;;;12.36;88.25;97806.66;1698904;84;21010;-81
2022/10/23 01:34:58;;;;;;;7.55;3.85;;;;;;;12.34;88.03;97810.70;1686460;83;20998;-81
2022/10/23 01:37:30;;;;;;;6.83;4.53;;;;;;;12.30;88.29;97811.78;1699560;83;21085;-80
2022/10/23 01:40:02;;;;;;;5.40;4.28;;;;;;;12.27;87.87;97816.75;1699024;84;21487;-81
2022/10/23 01:42:38;;;;;;;5.47;4.28;;;;;;;12.23;88.50;97813.80;1699493;83;21027;-80
2022/10/23 01:45:10;;;;;;;5.75;4.50;;;;;;;12.19;87.77;97822.81;1693633;84;20990;-80
2022/10/23 01:47:40;;;;;;;;;;;;;;;12.11;87.92;97825.78;1699875;83;20986;-81
2022/10/23 01:50:12;;;;;;;6.70;5.12;;;;;;;12.08;88.04;97825.88;1699541;84;20114;-80
2022/10/23 01:52:41;;;;;;;6.92;5.30;;;;;;;12.04;88.70;97825.56;1699595;83;20994;-81
2022/10/23 01:55:11;;;;;;;6.95;5.03;;;;;;;12.01;88.55;97830.52;1699364;84;20962;-79
2022/10/23 01:57:41;;;;;;;6.87;5.00;;;;;;;12.01;88.42;97839.82;1699334;83;20982;-79
2022/10/23 02:00:13;;;;;;;10.65;6.25;;;;;;;12.00;88.24;97839.42;1680903;83;21007;-80
2022/10/23 02:02:54;;;;;;;7.72;5.40;;;;;;;12.01;88.24;97853.10;1699656;84;21010;-80
2022/10/23 02:05:26;;;;;;;8.10;6.17;;;;;;;12.01;88.28;97858.41;1699315;84;21025;-80
2022/10/23 02:07:55;;;;;;;9.08;6.30;;;;;;;12.01;88.45;97853.58;1692152;84;20986;-80
2022/10/23 02:10:27;;;;;;;9.63;6.25;;;;;;;12.01;88.41;97858.89;1699501;84;21060;-80
2022/10/23 02:13:14;;;;;;;9.58;6.65;;;;;;;12.00;88.25;97851.37;1699293;84;20998;-81
2022/10/23 02:15:46;;;;;;;10.18;6.65;;;;;;;12.02;88.08;97857.97;1677297;83;21018;-81
2022/10/23 02:18:34;;;;;;;10.85;7.25;;;;;;;12.01;88.28;97865.05;1716622;83;20958;-81
2022/10/23 02:21:13;;;;;;;9.65;6.53;;;;;;;12.01;87.93;97866.38;1717231;82;21017;-81
2022/10/23 02:23:43;;;;;;;9.23;6.75;;;;;;;12.00;87.88;97863.33;1716823;82;21004;-80
2022/10/23 02:26:37;;;;;;;9.25;7.08;;;;;;;12.00;88.02;97869.97;1719974;82;20961;-81
2022/10/23 02:29:15;;;;;;;8.75;6.62;;;;;;;12.03;88.50;97874.78;1691900;83;21021;-81
2022/10/23 02:31:42;;;;;;;8.88;6.30;;;;;;;12.06;88.08;97872.02;1721411;82;21383;-81
2022/10/23 02:34:09;;;;;;;8.10;6.17;;;;;;;12.10;88.06;97876.30;1720187;82;20957;-81
2022/10/23 02:36:36;;;;;;;8.40;5.70;;;;;;;12.13;87.82;97875.72;1720231;82;20988;-81
2022/10/23 02:39:04;;;;;;;7.87;5.60;;;;;;;12.15;87.92;97886.28;1721279;81;20989;-81
2022/10/23 02:42:00;;;;;;;8.58;6.30;;;;;;;12.20;87.53;97891.45;1721366;82;21064;-81
2022/10/23 02:44:42;;;;;;;8.23;5.78;;;;;;;12.24;87.41;97903.21;1721133;81;21005;-81
2022/10/23 02:47:20;;;;;;;9.18;5.60;;;;;;;12.27;87.42;97900.91;1721247;82;20985;-81
2022/10/23 02:50:04;;;;;;;7.05;5.42;;;;;;;12.30;87.30;97910.55;1685608;82;21450;-80
2022/10/23 02:53:03;;;;;;;8.00;5.53;;;;;;;12.33;87.32;97909.11;1721388;81;21041;-81
2022/10/23 02:55:59;;;;;;;6.62;5.28;;;;;;;12.35;87.12;97916.10;1721565;83;21025;-81
2022/10/23 02:58:37;;;;;;;7.70;5.80;;;;;;;12.38;87.16;97925.27;1656275;85;21088;-80
2022/10/23 03:01:12;;;;;;;7.97;5.67;;;;;;;12.39;87.10;97926.14;1705185;82;21001;-79
2022/10/23 03:03:48;;;;;;;7.50;5.05;;;;;;;12.41;86.97;97940.23;1703090;82;20962;-80
2022/10/23 03:06:15;;;;;;;7.50;5.40;;;;;;;12.41;86.87;97943.77;1716489;82;21021;-80
2022/10/23 03:08:46;;;;;;;8.40;5.92;;;;;;;12.41;86.75;97938.90;1721479;83;21071;-79
2022/10/23 03:11:13;;;;;;;7.10;5.67;;;;;;;12.39;86.62;97944.75;1719415;82;21017;-80
2022/10/23 03:13:39;;;;;;;7.25;5.47;;;;;;;12.39;86.58;97957.59;1721470;82;20973;-80
2022/10/23 03:16:06;;;;;;;7.55;5.70;;;;;;;12.43;86.63;97952.14;1721772;82;21027;-80
2022/10/23 03:18:33;;;;;;;7.62;5.67;;;;;;;12.46;86.44;97961.33;1721588;81;20989;-80
2022/10/23 03:21:01;;;;;;;8.45;6.00;;;;;;;12.47;86.37;97957.74;1720034;83;21020;-81
2022/10/23 03:23:28;;;;;;;7.58;5.80;;;;;;;12.47;86.06;97955.97;1721377;82;20977;-80
2022/10/23 03:25:55;;;;;;;8.55;6.20;;;;;;;12.42;85.84;97961.92;1710232;83;21030;-80
2022/10/23 03:28:34;;;;;;;8.65;6.22;;;;;;;12.42;85.87;97957.94;1707289;84;21097;-80
2022/10/23 03:31:02;;;;;;;8.68;6.58;;;;;;;12.40;85.45;97955.33;1706074;84;20973;-80
2022/10/23 03:33:30;;;;;;;11.68;6.97;;;;;;;12.38;85.40;97962.95;1707017;83;21010;-80
2022/10/23 03:35:59;;;;;;;10.43;6.83;;;;;;;12.36;85.25;97974.08;1693754;83;20982;-80
2022/10/23 03:38:25;;;;;;;11.73;6.97;;;;;;;12.32;85.24;97975.12;1701706;83;21037;-81
2022/10/23 03:40:52;;;;;;;9.88;7.15;;;;;;;12.27;85.25;97982.83;1708447;84;21025;-81
2022/10/23 03:43:20;;;;;;;10.63;7.15;;;;;;;12.23;85.15;97985.63;1707740;83;21003;-80
2022/10/23 03:45:46;;;;;;;11.50;6.92;;;;;;;12.19;85.20;97984.00;1674083;85;21041;-80
2022/10/23 03:48:15;;;;;;;10.60;7.25;;;;;;;12.13;85.34;97997.92;1708322;83;20957;-81
2022/10/23 03:50:43;;;;;;;37.20;23.92;;;;;;;12.06;85.60;97995.09;1674197;85;21002;-80
2022/10/23 03:53:10;;;;;;;12.50;7.90;;;;;;;12.03;85.54;97992.98;1699671;83;21004;-80
2022/10/23 03:55:37;;;;;;;12.20;7.42;;;;;;;11.99;85.98;98006.36;1704577;83;21064;-81
2022/10/23 03:58:03;;;;;;;10.98;7.37;;;;;;;11.96;85.76;98002.47;1702916;84;21032;-80
2022/10/23 04:00:30;;;;;;;9.35;6.90;;;;;;;11.94;85.60;97999.46;1646537;87;21019;-80
2022/10/23 04:02:59;;;;;;;11.22;6.72;;;;;;;11.90;86.07;97998.70;1702939;82;21065;-81
2022/10/23 04:05:26;;;;;;;9.93;7.10;;;;;;;11.89;85.95;98004.47;1708343;84;20994;-80
2022/10/23 04:07:54;;;;;;;11.05;6.80;;;;;;;11.87;86.04;97997.03;1708399;84;20965;-81
2022/10/23 04:10:21;;;;;;;10.15;6.58;;;;;;;11.85;86.13;98002.86;1708412;84;20998;-80
2022/10/23 04:12:47;;;;;;;10.93;7.05;;;;;;;11.85;86.15;98008.18;1708441;83;21376;-80
2022/10/23 04:15:14;;;;;;;8.70;5.85;;;;;;;11.86;86.26;98007.70;1695809;82;20988;-80
2022/10/23 04:17:42;;;;;;;8.95;6.12;;;;;;;11.87;86.25;98011.63;1674144;85;20978;-80
2022/10/23 04:20:09;;;;;;;8.15;5.85;;;;;;;11.89;86.17;98010.26;1708274;83;20989;-80
2022/10/23 04:22:35;;;;;;;7.83;5.50;;;;;;;11.93;86.05;98007.03;1708288;84;20998;-80
2022/10/23 04:25:02;;;;;;;7.25;5.45;;;;;;;11.97;85.96;98014.85;1713174;82;21061;-80
2022/10/23 04:27:30;;;;;;;8.08;5.97;;;;;;;11.98;85.85;98011.27;1721260;83;21355;-80
2022/10/23 04:29:56;;;;;;;10.40;5.87;;;;;;;12.01;85.75;98012.47;1721392;82;21015;-80
2022/10/23 04:32:23;;;;;;;7.72;5.33;;;;;;;12.04;85.70;98014.63;1721547;83;20941;-79
2022/10/23 04:34:51;;;;;;;7.50;5.33;;;;;;;12.07;85.65;98015.86;1720491;83;21036;-79
2022/10/23 04:37:18;;;;;;;9.63;5.70;;;;;;;12.09;85.53;98022.01;1717374;82;20973;-80
2022/10/23 04:39:45;;;;;;;7.10;4.95;;;;;;;12.10;85.15;98017.97;1721313;83;20973;-80
2022/10/23 04:42:14;;;;;;;7.03;5.08;;;;;;;12.12;85.02;98025.41;1720345;82;20997;-80
2022/10/23 04:44:40;;;;;;;6.65;5.37;;;;;;;12.15;84.97;98023.11;1721137;82;21049;-79
2022/10/23 04:47:07;;;;;;;6.97;4.80;;;;;;;12.17;84.94;98029.70;1698508;82;21018;-79
2022/10/23 04:49:35;;;;;;;7.42;5.10;;;;;;;12.17;84.72;98031.91;1719350;82;20982;-79
2022/10/23 04:52:18;;;;;;;8.10;4.90;;;;;;;12.19;84.54;98038.47;1720987;81;21057;-79
2022/10/23 04:54:47;;;;;;;6.62;4.65;;;;;;;12.17;84.23;98034.56;1704163;83;21058;-82
2022/10/23 04:57:22;;;;;;;7.95;5.58;;;;;;;12.18;84.17;98048.70;1719729;82;21052;-81
2022/10/23 04:59:53;;;;;;;7.20;4.72;;;;;;;12.16;84.14;98052.73;1713100;83;21425;-81
2022/10/23 05:02:20;;;;;;;6.20;4.97;;;;;;;12.16;84.14;98047.42;1721528;83;20981;-81
2022/10/23 05:04:48;;;;;;;7.70;5.45;;;;;;;12.14;84.06;98041.30;1721489;81;21001;-81
2022/10/23 05:07:29;;;;;;;7.45;5.67;;;;;;;12.11;84.07;98053.36;1703123;83;21350;-82
2022/10/23 05:10:16;;;;;;;6.90;5.40;;;;;;;12.07;84.08;98063.23;1719662;82;21467;-81
2022/10/23 05:12:50;;;;;;;8.95;5.85;;;;;;;12.06;84.17;98060.62;1720434;82;20965;-82
2022/10/23 05:15:17;;;;;;;11.12;5.40;;;;;;;12.05;84.23;98066.41;1721268;82;21026;-81
2022/10/23 05:17:47;;;;;;;6.80;5.25;;;;;;;12.05;84.29;98068.19;1720224;82;21017;-82
2022/10/23 05:20:19;;;;;;;9.43;5.53;;;;;;;12.04;84.27;98067.75;1721446;82;20992;-81
2022/10/23 05:22:50;;;;;;;7.58;5.37;;;;;;;12.03;84.34;98066.02;1721304;82;20981;-81
2022/10/23 05:25:18;;;;;;;8.33;5.80;;;;;;;12.01;84.41;98077.55;1717256;81;21486;-81
2022/10/23 05:27:46;;;;;;;8.03;5.55;;;;;;;12.02;84.27;98079.75;1720816;82;21021;-81
2022/10/23 05:30:15;;;;;;;9.45;6.05;;;;;;;12.03;84.26;98085.47;1721316;82;21581;-81
2022/10/23 05:32:42;;;;;;;8.83;6.12;;;;;;;12.04;84.16;98092.98;1721236;82;20996;-82
2022/10/23 05:35:16;;;;;;;9.73;6.42;;;;;;;12.03;84.28;98094.77;1700366;81;20985;-81
2022/10/23 05:37:47;;;;;;;8.88;6.00;;;;;;;12.04;84.42;98093.84;1704776;82;20973;-81
2022/10/23 05:40:16;;;;;;;9.05;6.30;;;;;;;12.03;84.41;98099.23;1720782;82;21041;-81
2022/10/23 05:42:43;;;;;;;8.73;6.12;;;;;;;12.01;84.88;98097.95;1721265;83;21032;-81
2022/10/23 05:45:12;;;;;;;7.72;5.35;;;;;;;11.99;84.61;98097.99;1718419;83;21008;-81
2022/10/23 05:47:45;;;;;;;9.23;6.53;;;;;;;11.98;84.63;98102.91;1701145;82;20981;-80
2022/10/23 05:50:30;;;;;;;8.35;5.85;;;;;;;12.00;85.20;98106.84;1721327;82;20996;-80
2022/10/23 05:53:01;;;;;;;9.50;5.58;;;;;;;12.00;85.15;98106.36;1717959;82;21390;-81
2022/10/23 05:55:29;;;;;;;7.67;5.58;;;;;;;12.01;84.97;98109.90;1719704;82;21086;-80
2022/10/23 05:57:57;;;;;;;8.13;5.67;;;;;;;12.01;84.78;98111.23;1715455;82;20971;-80
2022/10/23 06:00:26;;;;;;;9.93;6.33;;;;;;;12.03;84.85;98110.70;1701946;82;21044;-81
2022/10/23 06:02:54;;;;;;;12.25;6.15;;;;;;;12.07;84.60;98108.84;1720268;82;20974;-81
2022/10/23 06:05:22;;;;;;;19.27;13.30;;;;;;;12.12;84.80;98122.83;1720472;83;21446;-81
2022/10/23 06:07:51;;;;;;;15.98;10.43;;;;;;;12.17;84.79;98124.90;1718493;82;21411;-81
2022/10/23 06:10:17;;;;;;;15.90;10.38;;;;;;;12.22;84.86;98122.95;1721253;82;21040;-80
2022/10/23 06:12:45;;;;;;;8.38;5.55;;;;;;;12.28;84.94;98124.51;1721245;82;20961;-81
2022/10/23 06:15:13;;;;;;;7.58;5.37;;;;;;;12.35;84.93;98129.16;1721167;82;20985;-81
2022/10/23 06:17:42;;;;;;;7.75;4.97;;;;;;;12.39;84.88;98130.34;1717653;82;21467;-80
2022/10/23 06:20:11;;;;;;;8.15;5.53;;;;;;;12.45;84.84;98139.02;1719192;81;20949;-80
2022/10/23 06:22:38;;;;;;;7.10;5.12;;;;;;;12.49;84.84;98136.63;1721146;83;22324;-81
2022/10/23 06:25:08;;;;;;;6.78;4.62;;;;;;;12.51;84.69;98140.98;1717115;82;21136;-82
2022/10/23 06:27:35;;;;;;;9.05;4.90;;;;;;;12.51;84.83;98148.95;1708254;83;20994;-81
2022/10/23 06:30:03;;;;;;;7.10;4.92;;;;;;;12.60;84.83;98159.75;1708289;83;21459;-81
2022/10/23 06:32:33;;;;;;;6.17;4.55;;;;;;;12.63;84.55;98156.95;1708220;84;20982;-81
2022/10/23 06:35:01;;;;;;;5.97;4.47;;;;;;;12.71;84.54;98158.49;1669913;85;21085;-82
2022/10/23 06:37:28;;;;;;;5.05;3.87;;;;;;;12.76;84.35;98161.86;1708254;83;21065;-81
2022/10/23 06:39:56;;;;;;;5.87;3.90;;;;;;;12.82;84.18;98170.09;1672638;86;21021;-81
2022/10/23 06:42:29;;;;;;;5.92;3.75;;;;;;;12.86;83.79;98169.91;1662914;86;21451;-80
2022/10/23 06:44:56;;;;;;;5.58;4.40;;;;;;;12.92;83.97;98172.81;1708227;84;20990;-81
2022/10/23 06:47:33;;;;;;;5.90;3.90;;;;;;;12.96;83.36;98174.89;1652912;87;20999;-81
2022/10/23 06:50:04;;;;;;;5.35;3.98;;;;;;;12.99;83.45;98183.62;1695738;84;21044;-81
2022/10/23 06:52:31;;;;;;;6.00;4.10;;;;;;;13.06;83.57;98177.63;1702265;83;21025;-81
2022/10/23 06:54:58;;;;;;;5.10;3.75;;;;;;;13.12;83.11;98181.38;1693896;84;21040;-81
2022/10/23 06:57:27;;;;;;;4.70;3.75;;;;;;;13.17;82.88;98180.74;1707564;83;21005;-81
2022/10/23 06:59:53;;;;;;;5.85;4.17;;;;;;;13.22;82.75;98179.26;1688197;82;21022;-81
2022/10/23 07:02:20;;;;;;;5.37;3.83;;;;;;;13.30;82.71;98182.95;1706998;83;20949;-81
2022/10/23 07:04:47;;;;;;;6.10;3.83;;;;;;;13.31;82.32;98187.34;1707476;84;21041;-81
2022/10/23 07:07:16;;;;;;;6.53;4.40;;;;;;;13.38;82.27;98189.32;1708230;83;21419;-80
2022/10/23 07:09:44;;;;;;;4.58;3.65;;;;;;;13.42;82.32;98193.61;1708111;83;21491;-80
2022/10/23 07:12:22;;;;;;;5.60;3.62;;;;;;;13.45;82.17;98202.34;1708037;84;21076;-80
2022/10/23 07:14:50;;;;;;;7.47;4.40;;;;;;;13.50;82.04;98200.88;1707803;84;20993;-79
2022/10/23 07:17:16;;;;;;;27.62;15.83;;;;;;;13.56;82.26;98213.07;1708226;84;21017;-79
2022/10/23 07:19:46;;;;;;;9.63;5.75;;;;;;;13.64;82.23;98211.44;1708353;84;20988;-80
2022/10/23 07:22:15;;;;;;;5.08;3.65;;;;;;;13.70;81.97;98204.57;1708259;82;21053;-80
2022/10/23 07:24:43;;;;;;;4.58;3.17;;;;;;;13.75;81.88;98200.38;1697369;84;21514;-80
2022/10/23 07:27:16;;;;;;;6.08;3.60;;;;;;;13.81;81.15;98198.80;1699710;82;21727;-80
2022/10/23 07:29:42;;;;;;;5.12;3.00;;;;;;;13.83;80.79;98200.95;1721161;83;21427;-80
2022/10/23 07:32:09;;;;;;;4.67;3.42;;;;;;;13.87;80.08;98206.54;1720825;82;20977;-80
2022/10/23 07:34:54;;;;;;;3.87;3.30;;;;;;;13.88;80.00;98202.09;1706790;83;21463;-80
2022/10/23 07:37:23;;;;;;;4.37;3.40;;;;;;;13.91;79.70;98198.83;1691294;81;21482;-80
2022/10/23 07:39:50;;;;;;;5.35;3.83;;;;;;;13.89;78.46;98198.04;1721438;83;20989;-80
2022/10/23 07:42:16;;;;;;;4.35;3.75;;;;;;;13.84;78.49;98203.53;1721412;82;21477;-81
2022/10/23 07:44:43;;;;;;;4.30;3.58;;;;;;;13.84;78.86;98206.20;1720037;82;20985;-80
2022/10/23 07:47:10;;;;;;;5.28;3.58;;;;;;;13.81;78.09;98207.67;1721472;82;20961;-81
2022/10/23 07:49:38;;;;;;;4.62;3.25;;;;;;;13.75;77.24;98210.58;1721384;82;21032;-80
2022/10/23 07:52:06;;;;;;;4.45;3.37;;;;;;;13.72;77.78;98212.91;1719011;82;21388;-80
2022/10/23 07:54:34;;;;;;;4.50;3.12;;;;;;;13.70;77.70;98218.73;1716987;83;21487;-80
2022/10/23 07:57:14;;;;;;;4.15;3.10;;;;;;;13.70;77.07;98226.72;1720582;82;21048;-80
2022/10/23 07:59:43;;;;;;;6.17;3.30;;;;;;;13.68;76.83;98231.70;1720584;82;21000;-79
2022/10/23 08:02:13;;;;;;;3.85;2.95;;;;;;;13.65;76.23;98228.70;1720745;83;21000;-81
2022/10/23 08:04:41;;;;;;;3.75;2.60;;;;;;;13.66;76.31;98228.25;1720419;83;21037;-81
2022/10/23 08:07:12;;;;;;;5.58;3.12;;;;;;;13.66;76.54;98227.77;1719847;82;20985;-80
2022/10/23 08:09:41;;;;;;;3.10;2.80;;;;;;;13.65;76.59;98223.38;1721350;82;20993;-81
2022/10/23 08:12:09;;;;;;;2.85;2.55;;;;;;;13.66;76.54;98229.09;1721163;81;21049;-82
2022/10/23 08:14:36;;;;;;;5.25;3.27;;;;;;;13.65;75.40;98231.81;1721368;83;21060;-81
2022/10/23 08:17:03;;;;;;;4.30;2.80;;;;;;;13.66;75.45;98233.09;1721401;82;20961;-81
2022/10/23 08:19:48;;;;;;;4.10;3.12;;;;;;;13.67;75.32;98241.48;1721243;82;20982;-81
2022/10/23 08:22:15;;;;;;;4.58;2.80;;;;;;;13.69;75.76;98238.31;1720310;82;20985;-81
2022/10/23 08:24:43;;;;;;;4.75;2.55;;;;;;;13.72;75.34;98232.87;1720319;81;20965;-81
2022/10/23 08:27:09;;;;;;;3.72;2.62;;;;;;;13.75;75.42;98235.00;1717910;82;21411;-81
2022/10/23 08:29:37;;;;;;;3.50;2.60;;;;;;;13.76;75.01;98244.27;1716519;82;21477;-80
2022/10/23 08:32:04;;;;;;;3.95;2.83;;;;;;;13.81;74.50;98245.41;1717039;82;21061;-79
2022/10/23 08:34:32;;;;;;;3.20;2.37;;;;;;;13.84;74.16;98242.64;1714182;82;20998;-79
2022/10/23 08:37:00;;;;;;;2.90;2.50;;;;;;;13.89;73.48;98242.00;1712403;82;20997;-80
2022/10/23 08:39:28;;;;;;;3.75;2.22;;;;;;;13.97;74.02;98245.23;1716975;82;20969;-81
2022/10/23 08:42:05;;;;;;;3.37;1.98;;;;;;;14.04;73.21;98246.31;1712539;82;21485;-81
2022/10/23 08:44:39;;;;;;;2.50;2.20;;;;;;;14.06;71.90;98247.11;1716951;83;20977;-81
2022/10/23 08:47:18;;;;;;;2.33;2.12;;;;;;;14.12;72.30;98248.23;1716618;82;21028;-80
2022/10/23 08:50:15;;;;;;;3.12;2.22;;;;;;;14.15;71.53;98246.75;1680378;83;21045;-80
2022/10/23 08:52:53;;;;;;;3.10;2.37;;;;;;;14.25;72.32;98248.59;1715603;82;21044;-82
2022/10/23 08:55:36;;;;;;;2.72;2.40;;;;;;;14.35;71.14;98252.61;1716925;83;21006;-82
2022/10/23 08:58:17;;;;;;;2.65;2.27;;;;;;;14.43;71.71;98256.75;1694228;83;21005;-82
2022/10/23 09:00:47;;;;;;;3.05;2.50;;;;;;;14.50;71.77;98248.92;1703870;81;21532;-81
2022/10/23 09:03:14;;;;;;;4.28;2.42;;;;;;;14.60;72.15;98255.59;1717934;82;21550;-82
2022/10/23 09:05:55;;;;;;;3.42;2.50;;;;;;;14.70;71.87;98251.21;1712872;82;21017;-83
2022/10/23 09:08:36;;;;;;;3.52;2.60;;;;;;;14.76;72.21;98243.85;1713598;83;21040;-82
2022/10/23 09:11:20;;;;;;;3.72;2.83;;;;;;;14.81;71.21;98252.98;1712742;82;21411;-81
2022/10/23 09:14:26;;;;;;;5.40;2.45;;;;;;;14.82;71.09;98252.04;1708457;83;21033;-82
2022/10/23 09:17:10;;;;;;;3.62;2.50;;;;;;;14.84;70.94;98259.98;1719156;82;21435;-76
2022/10/23 09:19:37;;;;;;;2.98;2.40;;;;;;;14.91;71.63;98269.48;1710124;83;21108;-75
2022/10/23 09:22:04;;;;;;;2.77;2.40;;;;;;;14.99;71.60;98262.47;1716379;82;20984;-75
2022/10/23 09:24:32;;;;;;;4.97;2.70;;;;;;;15.03;70.33;98264.08;1710166;83;21006;-75
2022/10/23 09:26:59;;;;;;;3.58;3.00;;;;;;;15.04;70.59;98253.31;1728242;81;21379;-75
2022/10/23 09:29:34;;;;;;;3.40;2.60;;;;;;;15.08;70.61;98254.52;1721474;82;20989;-75
2022/10/23 09:32:05;;;;;;;4.33;3.00;;;;;;;15.11;69.53;98249.91;1726623;82;21430;-75
2022/10/23 09:34:34;;;;;;;4.03;2.50;;;;;;;15.23;70.16;98248.98;1717285;82;20973;-75
2022/10/23 09:37:24;;;;;;;4.15;2.52;;;;;;;15.31;70.51;98247.70;1727676;82;21049;-80
2022/10/23 09:40:17;;;;;;;3.55;2.62;;;;;;;15.30;68.39;98253.98;1713776;82;20977;-80
2022/10/23 09:42:58;;;;;;;15.72;11.68;;;;;;;15.24;68.50;98258.72;1678989;84;21044;-79
2022/10/23 09:45:33;;;;;;;8.35;4.80;;;;;;;15.26;69.48;98246.16;1720295;82;21009;-79
2022/10/23 09:48:14;;;;;;;4.10;3.30;;;;;;;15.32;69.79;98249.88;1723161;82;21397;-78
2022/10/23 09:50:54;;;;;;;3.62;2.70;;;;;;;15.42;69.93;98243.22;1727888;82;21064;-79
2022/10/23 09:53:37;;;;;;;3.30;2.50;;;;;;;15.53;69.57;98252.54;1721396;82;21043;-79
2022/10/23 09:56:34;;;;;;;4.35;2.50;;;;;;;15.58;66.62;98258.05;1725115;82;20988;-80
2022/10/23 09:59:12;;;;;;;3.83;3.00;;;;;;;15.53;66.35;98249.87;1701448;83;20953;-80
2022/10/23 10:01:57;;;;;;;2.47;2.10;;;;;;;15.49;65.23;98251.78;1725392;82;20982;-80
2022/10/23 10:04:41;;;;;;;4.70;2.25;;;;;;;15.53;65.94;98253.88;1721280;81;21037;-79
2022/10/23 10:07:21;;;;;;;3.25;2.30;;;;;;;15.69;65.53;98245.53;1720618;82;21017;-78
2022/10/23 10:09:49;;;;;;;3.22;2.00;;;;;;;15.82;65.29;98252.51;1721095;81;21036;-79
2022/10/23 10:12:55;;;;;;;2.42;1.72;;;;;;;16.03;65.14;98239.09;1721640;82;20993;-81
2022/10/23 10:15:34;;;;;;;2.33;1.95;;;;;;;16.25;64.67;98244.75;1721552;82;22029;-79
2022/10/23 10:18:14;;;;;;;2.70;2.00;;;;;;;16.35;63.08;98231.77;1725936;82;20997;-79
2022/10/23 10:20:49;;;;;;;2.27;1.80;;;;;;;16.40;61.29;98236.42;1726154;82;21383;-79
2022/10/23 10:23:28;;;;;;;2.02;1.67;;;;;;;16.52;61.66;98227.41;1728999;82;21066;-79
2022/10/23 10:26:00;;;;;;;3.42;1.92;;;;;;;16.68;62.64;98223.46;1730798;82;20948;-78
2022/10/23 10:29:06;;;;;;;2.45;2.00;;;;;;;16.93;62.13;98234.27;1729986;82;20993;-79
2022/10/23 10:31:53;;;;;;;2.60;1.75;;;;;;;17.65;61.64;98234.08;1720758;82;20981;-79
2022/10/23 10:34:40;;;;;;;4.22;2.05;;;;;;;17.94;60.63;98236.96;1728863;81;20954;-79
2022/10/23 10:37:47;;;;;;;2.92;1.98;;;;;;;17.99;58.61;98244.27;1732014;81;21017;-79
2022/10/23 10:40:34;;;;;;;2.52;2.00;;;;;;;18.79;60.39;98236.61;1719942;82;20993;-79
2022/10/23 10:43:22;;;;;;;2.70;2.10;;;;;;;19.28;55.15;98223.00;1736951;82;21410;-79
2022/10/23 10:46:00;;;;;;;3.87;2.33;;;;;;;19.28;55.15;98223.00;1729250;82;21009;-79
2022/10/23 10:48:49;;;;;;;3.22;2.77;;;;;;;19.08;55.69;98227.31;1724724;82;21020;-79
2022/10/23 10:51:31;;;;;;;4.17;2.33;;;;;;;18.79;56.30;98230.36;1699002;82;21398;-78
2022/10/23 10:54:39;;;;;;;4.60;2.87;;;;;;;18.71;54.62;98233.05;1729305;82;21494;-79
2022/10/23 10:57:17;;;;;;;4.05;2.98;;;;;;;19.03;54.26;98228.04;1723181;82;20961;-79
2022/10/23 10:59:46;;;;;;;3.17;2.30;;;;;;;18.67;54.11;98226.13;1643312;84;21458;-79
2022/10/23 11:02:27;;;;;;;5.12;2.40;;;;;;;18.35;54.77;98235.56;1721124;82;21029;-80
2022/10/23 11:05:20;;;;;;;3.65;3.35;;;;;;;18.09;55.46;98243.30;1721279;82;21447;-79
2022/10/23 11:07:54;;;;;;;3.98;3.17;;;;;;;17.85;56.11;98244.17;1720481;82;21458;-78
2022/10/23 11:10:21;;;;;;;2.85;2.37;;;;;;;17.73;57.35;98239.86;1720633;82;21053;-80
2022/10/23 11:12:50;;;;;;;3.12;2.52;;;;;;;17.59;55.78;98243.77;1721993;82;21053;-79
2022/10/23 11:15:25;;;;;;;3.47;2.90;;;;;;;17.57;57.31;98230.95;1733047;82;21066;-82
2022/10/23 11:18:00;;;;;;;3.20;2.87;;;;;;;18.32;58.69;98226.38;1738473;82;21056;-79
2022/10/23 11:20:56;;;;;;;3.98;2.65;;;;;;;19.34;53.80;98227.52;1726182;82;21060;-75
2022/10/23 11:24:03;;;;;;;3.00;2.60;;;;;;;18.92;52.17;98225.12;1721511;82;21020;-75
2022/10/23 11:26:35;;;;;;;3.75;2.27;;;;;;;18.96;54.24;98221.30;1718882;81;20981;-75
2022/10/23 11:29:31;;;;;;;2.75;2.30;;;;;;;18.84;54.39;98230.48;1704299;81;21029;-75
2022/10/23 11:32:40;;;;;;;8.23;6.28;;;;;;;18.71;55.24;98220.09;1631973;82;21001;-75
2022/10/23 11:35:40;;;;;;;3.27;2.50;;;;;;;18.54;55.85;98230.47;1707965;82;21470;-74
2022/10/23 11:38:30;;;;;;;3.22;2.77;;;;;;;18.55;56.47;98234.42;1745430;82;21328;-75
2022/10/23 11:41:01;;;;;;;2.70;2.50;;;;;;;18.63;56.92;98225.06;1690518;83;21017;-75
2022/10/23 11:43:55;;;;;;;3.75;2.72;;;;;;;18.69;57.57;98227.38;1688121;84;21482;-75
2022/10/23 11:46:34;;;;;;;3.30;2.70;;;;;;;18.61;57.76;98219.78;1710294;83;21029;-75
2022/10/23 11:49:04;;;;;;;4.42;2.98;;;;;;;18.57;57.44;98215.55;1676900;85;21006;-75
2022/10/23 11:51:37;;;;;;;4.00;2.92;;;;;;;18.58;55.46;98218.61;1724545;81;21367;-75
2022/10/23 11:54:15;;;;;;;3.35;2.62;;;;;;;18.43;55.13;98223.92;1741417;82;21441;-74
2022/10/23 11:57:07;;;;;;;3.22;2.55;;;;;;;18.44;56.59;98224.30;1712715;83;21021;-74
2022/10/23 11:59:51;;;;;;;2.65;2.30;;;;;;;18.50;54.88;98227.11;1657491;83;20997;-75
2022/10/23 12:02:36;;;;;;;3.77;2.75;;;;;;;18.19;55.17;98219.02;1686636;85;21349;-74
2022/10/23 12:05:40;;;;;;;4.40;2.72;;;;;;;18.09;54.98;98218.31;1743515;81;20994;-75